Time;durP1;ratioP1;P1;durP2;ratioP2;P2;SDS_P1;SDS_P2;PMS_P1;PMS_P2;Temp;Humidity;BMP_temperature;BMP_pressure;BME280_temperature;BME280_humidity;BME280_pressure;Samples;Min_cycle;Max_cycle;Signal;HPM_P1;HPM_P2
2024/03/06 00:01:34;;;;;;;9.43;6.25;;;5.80;99.90;;;;;;4975263;28;20030;-71
2024/03/06 00:04:03;;;;;;;8.40;7.55;;;5.80;99.90;;;;;;4976240;28;20447;-70
2024/03/06 00:06:30;;;;;;;8.88;6.47;;;6.00;99.90;;;;;;4976429;28;20046;-71
2024/03/06 00:08:57;;;;;;;13.35;6.80;;;5.70;99.90;;;;;;4975080;28;20109;-70
2024/03/06 00:11:25;;;;;;;8.40;6.97;;;5.70;99.90;;;;;;4975609;28;20093;-70
2024/03/06 00:13:52;;;;;;;10.38;5.95;;;5.70;99.90;;;;;;4975799;28;20081;-71
2024/03/06 00:16:20;;;;;;;11.93;5.00;;;5.70;99.90;;;;;;4974686;28;20480;-70
2024/03/06 00:18:47;;;;;;;10.93;6.75;;;5.80;99.90;;;;;;4975019;28;20043;-70
2024/03/06 00:21:14;;;;;;;9.40;7.57;;;5.70;99.90;;;;;;4974942;28;20047;-70
2024/03/06 00:23:41;;;;;;;8.68;6.45;;;5.70;99.90;;;;;;4974971;28;20057;-70
2024/03/06 00:26:10;;;;;;;10.93;6.57;;;5.70;99.90;;;;;;4975907;28;20069;-71
2024/03/06 00:28:37;;;;;;;10.27;7.03;;;5.70;99.90;;;;;;4974805;28;20054;-70
2024/03/06 00:31:05;;;;;;;11.02;6.53;;;5.80;99.90;;;;;;4974659;28;20113;-71
2024/03/06 00:33:32;;;;;;;10.25;8.02;;;5.80;99.90;;;;;;4974907;28;20043;-71
2024/03/06 00:35:59;;;;;;;11.52;6.40;;;5.80;99.90;;;;;;4976111;28;20118;-71
2024/03/06 00:38:26;;;;;;;11.27;6.68;;;5.80;99.90;;;;;;4975375;28;20149;-71
2024/03/06 00:40:53;;;;;;;7.10;6.40;;;5.80;99.90;;;;;;4975774;28;20497;-71
2024/03/06 00:43:20;;;;;;;12.70;8.00;;;5.80;99.90;;;;;;4975527;28;20051;-71
2024/03/06 00:45:47;;;;;;;10.27;6.05;;;5.80;99.90;;;;;;4974372;28;20109;-70
2024/03/06 00:48:14;;;;;;;13.40;7.57;;;5.80;99.90;;;;;;4974307;28;20054;-71
2024/03/06 00:50:41;;;;;;;7.97;6.35;;;5.80;99.90;;;;;;4975642;28;20073;-70
2024/03/06 00:53:08;;;;;;;9.38;6.88;;;5.80;99.90;;;;;;4974068;28;20047;-71
2024/03/06 00:55:35;;;;;;;10.80;7.75;;;5.80;99.90;;;;;;4975571;28;20039;-70
2024/03/06 00:58:02;;;;;;;12.38;7.45;;;5.80;99.90;;;;;;4974225;28;20051;-71
2024/03/06 01:00:30;;;;;;;10.80;6.35;;;5.80;99.90;;;;;;4975219;28;20101;-71
2024/03/06 01:02:57;;;;;;;12.02;6.78;;;6.00;99.90;;;;;;4974207;28;20544;-71
2024/03/06 01:05:24;;;;;;;9.52;6.63;;;5.80;99.90;;;;;;4975224;28;20042;-71
2024/03/06 01:07:51;;;;;;;10.95;7.47;;;5.80;99.90;;;;;;4974014;28;20051;-71
2024/03/06 01:10:17;;;;;;;10.50;7.03;;;5.90;99.90;;;;;;4973827;28;20113;-71
2024/03/06 01:12:45;;;;;;;13.10;7.47;;;5.80;99.90;;;;;;4973931;28;20039;-71
2024/03/06 01:15:12;;;;;;;15.05;7.60;;;5.90;99.90;;;;;;4973555;28;20059;-70
2024/03/06 01:17:39;;;;;;;10.55;7.47;;;5.90;99.90;;;;;;4973932;28;20049;-70
2024/03/06 01:20:07;;;;;;;9.40;5.95;;;5.80;99.90;;;;;;4957771;28;20097;-71
2024/03/06 01:22:35;;;;;;;14.60;7.38;;;5.90;99.90;;;;;;4974890;28;20034;-71
2024/03/06 01:25:02;;;;;;;8.30;5.72;;;5.80;99.90;;;;;;4973565;28;20050;-70
2024/03/06 01:27:29;;;;;;;11.32;6.78;;;5.90;99.90;;;;;;4973417;28;20105;-70
2024/03/06 01:29:56;;;;;;;6.60;5.55;;;5.90;99.90;;;;;;4975097;28;20054;-71
2024/03/06 01:32:23;;;;;;;8.60;6.43;;;5.80;99.90;;;;;;4974829;28;20077;-70
2024/03/06 01:34:50;;;;;;;9.68;6.93;;;5.80;99.90;;;;;;4974731;28;20114;-70
2024/03/06 01:37:17;;;;;;;6.57;4.32;;;5.80;99.90;;;;;;4973381;28;20043;-71
2024/03/06 01:39:44;;;;;;;11.32;7.60;;;5.80;99.90;;;;;;4973160;28;20452;-70
2024/03/06 01:42:11;;;;;;;8.52;6.13;;;5.80;99.90;;;;;;4974434;28;20066;-70
2024/03/06 01:44:38;;;;;;;9.55;8.55;;;5.70;99.90;;;;;;4974650;28;20396;-70
2024/03/06 01:47:06;;;;;;;12.98;8.43;;;5.70;99.90;;;;;;4973404;28;20145;-70
2024/03/06 01:49:34;;;;;;;11.43;6.95;;;5.70;99.90;;;;;;4973121;28;20058;-70
2024/03/06 01:52:08;;;;;;;11.27;8.27;;;5.70;99.90;;;;;;4973402;28;20043;-70
2024/03/06 01:54:35;;;;;;;10.88;7.07;;;5.70;99.90;;;;;;4972795;28;20047;-71
2024/03/06 01:57:04;;;;;;;6.63;5.30;;;5.70;99.90;;;;;;4973239;28;20047;-70
2024/03/06 01:59:31;;;;;;;12.32;7.53;;;5.70;99.90;;;;;;4972896;28;20054;-70
2024/03/06 02:02:03;;;;;;;9.35;7.65;;;5.60;99.90;;;;;;4973401;28;20531;-71
2024/03/06 02:04:31;;;;;;;8.88;6.72;;;5.60;99.90;;;;;;4972739;28;20050;-71
2024/03/06 02:06:59;;;;;;;10.13;6.45;;;5.60;99.90;;;;;;4974150;28;20057;-71
2024/03/06 02:09:26;;;;;;;10.10;8.02;;;5.60;99.90;;;;;;4973037;28;20381;-70
2024/03/06 02:11:53;;;;;;;7.75;6.53;;;5.60;99.90;;;;;;4972965;28;20043;-70
2024/03/06 02:14:20;;;;;;;9.25;6.55;;;5.60;99.90;;;;;;4988688;28;20492;-70
2024/03/06 02:16:47;;;;;;;11.18;7.07;;;5.70;99.90;;;;;;4972960;28;20097;-70
2024/03/06 02:19:15;;;;;;;11.40;6.10;;;5.60;99.90;;;;;;4972803;28;20043;-70
2024/03/06 02:21:42;;;;;;;9.82;7.10;;;5.70;99.90;;;;;;4972780;28;20055;-71
2024/03/06 02:24:11;;;;;;;12.48;7.82;;;5.80;99.90;;;;;;4972990;28;20054;-70
2024/03/06 02:26:38;;;;;;;11.63;9.30;;;5.70;99.90;;;;;;4956705;28;20416;-70
2024/03/06 02:29:06;;;;;;;11.20;6.85;;;5.70;99.90;;;;;;4956703;28;20508;-70
2024/03/06 02:31:33;;;;;;;12.15;7.10;;;5.70;99.90;;;;;;4972316;28;20070;-70
2024/03/06 02:34:04;;;;;;;13.60;7.65;;;5.80;99.90;;;;;;4972515;28;20101;-70
2024/03/06 02:36:32;;;;;;;8.30;6.63;;;5.70;99.90;;;;;;4971765;28;20043;-70
2024/03/06 02:38:59;;;;;;;11.95;8.15;;;5.70;99.90;;;;;;4972428;28;20054;-71
2024/03/06 02:41:26;;;;;;;7.75;6.32;;;5.70;99.90;;;;;;4956278;28;20039;-70
2024/03/06 02:43:53;;;;;;;9.77;6.78;;;5.80;99.90;;;;;;4973677;28;20046;-70
2024/03/06 02:46:20;;;;;;;8.30;7.05;;;5.80;99.90;;;;;;4973502;28;20089;-70
2024/03/06 02:48:47;;;;;;;10.18;8.15;;;5.80;99.90;;;;;;4973579;28;20043;-71
2024/03/06 02:51:19;;;;;;;15.00;8.75;;;5.80;99.90;;;;;;4972321;28;20455;-70
2024/03/06 02:53:49;;;;;;;10.55;7.72;;;5.80;99.90;;;;;;4972354;28;20043;-70
2024/03/06 02:56:17;;;;;;;8.65;5.03;;;5.90;99.90;;;;;;4972340;28;20047;-71
2024/03/06 02:58:45;;;;;;;8.93;5.80;;;5.70;99.90;;;;;;4972163;28;20153;-70
2024/03/06 03:01:13;;;;;;;11.98;7.78;;;5.70;99.90;;;;;;4956396;28;20042;-70
2024/03/06 03:03:44;;;;;;;11.40;7.60;;;5.70;99.90;;;;;;4972104;28;20047;-70
2024/03/06 03:06:11;;;;;;;14.30;8.68;;;5.70;99.90;;;;;;4972428;28;20105;-70
2024/03/06 03:08:39;;;;;;;9.80;6.15;;;5.70;99.90;;;;;;4972152;28;20485;-70
2024/03/06 03:11:07;;;;;;;9.80;6.45;;;5.70;99.90;;;;;;4972237;28;20102;-70
2024/03/06 03:13:34;;;;;;;8.52;6.50;;;5.70;99.90;;;;;;4973810;28;20097;-70
2024/03/06 03:16:03;;;;;;;12.07;7.55;;;5.60;99.90;;;;;;4973208;28;20092;-71
2024/03/06 03:18:30;;;;;;;10.40;7.93;;;5.60;99.90;;;;;;4973046;28;20073;-71
2024/03/06 03:20:57;;;;;;;7.68;5.80;;;5.60;99.90;;;;;;4972277;28;20055;-70
2024/03/06 03:23:24;;;;;;;9.88;7.40;;;5.60;99.90;;;;;;4955895;28;20047;-70
2024/03/06 03:25:51;;;;;;;11.32;9.90;;;5.60;99.90;;;;;;4971941;28;20464;-70
2024/03/06 03:28:18;;;;;;;13.10;7.78;;;5.60;99.90;;;;;;4973468;28;20162;-70
2024/03/06 03:30:45;;;;;;;11.77;8.43;;;5.60;99.90;;;;;;4970475;28;20110;-70
2024/03/06 03:33:12;;;;;;;8.40;6.03;;;5.70;99.90;;;;;;4972928;28;20054;-70
2024/03/06 03:35:39;;;;;;;10.75;8.15;;;5.60;99.90;;;;;;4971954;28;20054;-71
2024/03/06 03:38:06;;;;;;;12.90;7.68;;;5.60;99.90;;;;;;4970879;28;20054;-70
2024/03/06 03:40:33;;;;;;;6.53;4.85;;;5.60;99.90;;;;;;5004216;28;20113;-70
2024/03/06 03:43:05;;;;;;;9.25;5.90;;;5.60;99.90;;;;;;4973201;28;20034;-70
2024/03/06 03:45:36;;;;;;;11.90;7.60;;;5.60;99.90;;;;;;4973076;28;20061;-70
2024/03/06 03:48:03;;;;;;;14.50;9.02;;;5.60;99.90;;;;;;4991702;28;20559;-70
2024/03/06 03:50:31;;;;;;;14.27;9.02;;;5.60;99.90;;;;;;4991365;28;20051;-71
2024/03/06 03:53:00;;;;;;;11.48;7.20;;;5.60;99.90;;;;;;4976702;28;20093;-71
2024/03/06 03:55:28;;;;;;;8.48;5.85;;;5.60;99.90;;;;;;4976318;28;20043;-71
2024/03/06 03:57:55;;;;;;;10.25;7.68;;;5.60;99.90;;;;;;4975658;28;20101;-70
2024/03/06 04:00:22;;;;;;;12.95;8.52;;;5.60;99.90;;;;;;4990488;28;20539;-70
2024/03/06 04:02:50;;;;;;;9.25;5.30;;;5.50;99.90;;;;;;4974688;28;20051;-70
2024/03/06 04:05:17;;;;;;;11.60;8.23;;;5.50;99.90;;;;;;4991021;28;20047;-70
2024/03/06 04:07:44;;;;;;;10.80;7.57;;;5.50;99.90;;;;;;5007153;28;20058;-70
2024/03/06 04:10:11;;;;;;;12.60;8.15;;;5.50;99.90;;;;;;4991318;28;20043;-71
2024/03/06 04:12:39;;;;;;;15.00;8.93;;;5.50;99.90;;;;;;4976151;28;20058;-70
2024/03/06 04:15:07;;;;;;;9.18;7.28;;;5.60;99.90;;;;;;4976296;28;20400;-71
2024/03/06 04:17:36;;;;;;;13.02;7.60;;;5.50;99.90;;;;;;5007081;28;20042;-71
2024/03/06 04:20:05;;;;;;;15.60;8.52;;;5.50;99.90;;;;;;4991077;28;20043;-70
2024/03/06 04:22:33;;;;;;;13.02;8.20;;;5.50;99.90;;;;;;4975949;28;20543;-70
2024/03/06 04:25:00;;;;;;;15.95;9.35;;;5.50;99.90;;;;;;4976177;28;20481;-70
2024/03/06 04:27:27;;;;;;;12.95;8.63;;;5.50;99.90;;;;;;4990896;28;20077;-71
2024/03/06 04:29:53;;;;;;;10.02;6.15;;;5.50;99.90;;;;;;4990816;28;20066;-70
2024/03/06 04:32:20;;;;;;;15.38;8.32;;;5.50;99.90;;;;;;4975986;28;20094;-70
2024/03/06 04:34:47;;;;;;;12.00;7.43;;;5.50;99.90;;;;;;4990570;28;20378;-70
2024/03/06 04:37:14;;;;;;;11.77;8.57;;;5.50;99.90;;;;;;4990711;28;20493;-70
2024/03/06 04:39:41;;;;;;;15.05;9.93;;;5.50;99.90;;;;;;4975568;28;20110;-70
2024/03/06 04:42:09;;;;;;;12.85;8.70;;;5.50;99.90;;;;;;4975804;28;20039;-70
2024/03/06 04:44:36;;;;;;;13.65;9.30;;;5.50;99.90;;;;;;5006596;28;20050;-70
2024/03/06 04:47:03;;;;;;;14.38;9.50;;;5.50;99.90;;;;;;4975709;28;20186;-70
2024/03/06 04:49:36;;;;;;;14.65;9.40;;;5.50;99.90;;;;;;4990804;28;20115;-70
2024/03/06 04:52:04;;;;;;;11.63;8.05;;;5.50;99.90;;;;;;4990644;28;20534;-70
2024/03/06 04:54:31;;;;;;;13.95;8.32;;;5.50;99.90;;;;;;5006785;28;20047;-70
2024/03/06 04:56:58;;;;;;;15.40;8.90;;;5.50;99.90;;;;;;4975389;28;20097;-70
2024/03/06 04:59:26;;;;;;;15.55;10.65;;;5.50;99.90;;;;;;4974891;28;20393;-70
2024/03/06 05:01:53;;;;;;;14.20;8.70;;;5.70;99.90;;;;;;5006344;28;20039;-71
2024/03/06 05:04:21;;;;;;;14.07;7.10;;;5.50;99.90;;;;;;5006732;28;20503;-70
2024/03/06 05:07:05;;;;;;;13.88;9.00;;;5.50;99.90;;;;;;5003916;28;20034;-70
2024/03/06 05:09:50;;;;;;;14.75;7.97;;;5.50;99.90;;;;;;4975180;28;20062;-70
2024/03/06 05:12:34;;;;;;;13.55;8.23;;;5.50;99.90;;;;;;5001801;28;20170;-70
2024/03/06 05:15:19;;;;;;;15.95;10.40;;;5.50;99.90;;;;;;5001654;28;20401;-70
2024/03/06 05:18:05;;;;;;;10.05;7.45;;;5.50;99.90;;;;;;4990089;28;20046;-70
2024/03/06 05:20:49;;;;;;;11.85;8.73;;;5.50;99.90;;;;;;4974863;28;20023;-70
2024/03/06 05:23:33;;;;;;;13.20;9.60;;;5.40;99.90;;;;;;5006420;28;20427;-70
2024/03/06 05:26:17;;;;;;;12.77;9.25;;;5.40;99.90;;;;;;5006236;28;20484;-70
2024/03/06 05:29:02;;;;;;;11.82;8.57;;;5.40;99.90;;;;;;5003590;28;20043;-70
2024/03/06 05:31:47;;;;;;;17.05;10.77;;;5.50;99.90;;;;;;4974784;28;20416;-70
2024/03/06 05:34:31;;;;;;;15.30;6.93;;;5.50;99.90;;;;;;4974875;28;20042;-70
2024/03/06 05:37:16;;;;;;;15.25;9.25;;;5.40;99.90;;;;;;4974912;28;20081;-70
2024/03/06 05:40:00;;;;;;;15.00;8.35;;;5.50;99.90;;;;;;4974599;28;20059;-70
2024/03/06 05:42:45;;;;;;;15.25;8.27;;;5.50;99.90;;;;;;4974581;28;20110;-70
2024/03/06 05:45:29;;;;;;;9.55;7.53;;;5.50;99.90;;;;;;4974625;28;20038;-70
2024/03/06 05:48:14;;;;;;;12.98;8.23;;;5.50;99.90;;;;;;5005952;28;20070;-70
2024/03/06 05:50:58;;;;;;;12.95;9.90;;;5.50;99.90;;;;;;4974387;28;20071;-70
2024/03/06 05:53:43;;;;;;;14.13;9.48;;;5.50;99.90;;;;;;5000893;28;20049;-71
2024/03/06 05:56:28;;;;;;;9.10;6.32;;;5.50;99.90;;;;;;4987117;28;20045;-70
2024/03/06 05:59:12;;;;;;;14.18;8.88;;;5.50;99.90;;;;;;4987150;28;20037;-71
2024/03/06 06:01:39;;;;;;;13.05;7.93;;;5.50;99.90;;;;;;4988225;28;20097;-70
2024/03/06 06:04:06;;;;;;;10.98;8.75;;;5.50;99.90;;;;;;4973884;28;20065;-70
2024/03/06 06:06:34;;;;;;;11.15;8.48;;;5.50;99.90;;;;;;4987199;28;20488;-70
2024/03/06 06:09:03;;;;;;;14.27;9.13;;;5.50;99.90;;;;;;4973835;28;20563;-71
2024/03/06 06:11:30;;;;;;;15.18;8.88;;;5.50;99.90;;;;;;4972858;28;20082;-71
2024/03/06 06:13:57;;;;;;;15.07;8.93;;;5.50;99.90;;;;;;4973981;28;20047;-70
2024/03/06 06:16:24;;;;;;;12.15;8.48;;;5.50;99.90;;;;;;4974069;28;20553;-70
2024/03/06 06:18:52;;;;;;;13.55;8.57;;;5.50;99.90;;;;;;4973928;28;20042;-70
2024/03/06 06:21:19;;;;;;;8.77;6.70;;;5.60;99.90;;;;;;4988941;28;20074;-70
2024/03/06 06:23:46;;;;;;;13.05;9.32;;;5.60;99.90;;;;;;4973689;28;20496;-71
2024/03/06 06:26:14;;;;;;;13.38;8.70;;;5.60;99.90;;;;;;4972781;28;20051;-70
2024/03/06 06:28:42;;;;;;;16.20;8.55;;;5.60;99.90;;;;;;4973949;28;20551;-70
2024/03/06 06:31:09;;;;;;;13.98;8.77;;;5.60;99.90;;;;;;4988661;28;20070;-70
2024/03/06 06:33:36;;;;;;;12.48;10.10;;;5.60;99.90;;;;;;4973838;28;20404;-70
2024/03/06 06:36:03;;;;;;;14.43;9.13;;;5.60;99.90;;;;;;4972304;28;20118;-70
2024/03/06 06:38:30;;;;;;;14.30;9.00;;;5.60;99.90;;;;;;4972933;28;20046;-71
2024/03/06 06:40:57;;;;;;;11.00;8.05;;;5.60;99.90;;;;;;4987427;28;20073;-70
2024/03/06 06:43:24;;;;;;;13.43;8.85;;;5.60;99.90;;;;;;4988795;28;20050;-70
2024/03/06 06:45:51;;;;;;;12.00;8.50;;;5.70;99.90;;;;;;4973538;28;20042;-70
2024/03/06 06:48:20;;;;;;;15.77;10.57;;;5.70;99.90;;;;;;4988457;28;20412;-70
2024/03/06 06:50:47;;;;;;;11.95;9.32;;;5.70;99.90;;;;;;4972612;28;20078;-70
2024/03/06 06:53:15;;;;;;;17.27;10.43;;;5.70;99.90;;;;;;4988541;28;20095;-70
2024/03/06 06:55:42;;;;;;;11.55;8.07;;;5.80;99.90;;;;;;4973505;28;20047;-70
2024/03/06 06:58:09;;;;;;;11.40;8.32;;;5.80;99.90;;;;;;4972149;28;20488;-70
2024/03/06 07:00:37;;;;;;;14.18;9.85;;;5.80;99.90;;;;;;4972415;28;20504;-70
2024/03/06 07:03:04;;;;;;;15.63;12.27;;;5.80;99.90;;;;;;4988203;28;20475;-70
2024/03/06 07:05:31;;;;;;;14.15;9.18;;;5.80;99.90;;;;;;4972277;28;20110;-71
2024/03/06 07:07:58;;;;;;;15.45;9.00;;;5.90;99.90;;;;;;4973278;28;20057;-70
2024/03/06 07:10:26;;;;;;;13.80;8.35;;;5.90;99.90;;;;;;4972102;28;20065;-70
2024/03/06 07:12:53;;;;;;;13.73;8.32;;;5.90;99.90;;;;;;4973214;28;20042;-70
2024/03/06 07:15:20;;;;;;;14.48;9.25;;;5.90;99.90;;;;;;4973357;28;20042;-70
2024/03/06 07:17:47;;;;;;;12.65;8.52;;;5.90;99.90;;;;;;4988178;28;20049;-70
2024/03/06 07:20:14;;;;;;;14.65;9.15;;;5.90;99.90;;;;;;4972019;28;20050;-70
2024/03/06 07:22:42;;;;;;;13.35;9.20;;;5.90;99.90;;;;;;4991445;28;20051;-70
2024/03/06 07:25:09;;;;;;;13.77;8.40;;;5.90;99.90;;;;;;4975838;28;20043;-70
2024/03/06 07:27:36;;;;;;;13.35;9.13;;;5.90;99.90;;;;;;4976171;28;20059;-70
2024/03/06 07:30:05;;;;;;;13.60;8.63;;;5.90;99.90;;;;;;4992093;28;20053;-70
2024/03/06 07:32:32;;;;;;;13.57;9.82;;;5.90;99.90;;;;;;4977306;28;20042;-71
2024/03/06 07:34:59;;;;;;;16.27;10.00;;;6.00;99.90;;;;;;4975661;28;20070;-70
2024/03/06 07:37:26;;;;;;;15.18;9.25;;;6.00;99.90;;;;;;4977292;28;20073;-70
2024/03/06 07:39:53;;;;;;;11.73;7.60;;;6.00;99.90;;;;;;4991893;28;20086;-71
2024/03/06 07:42:21;;;;;;;13.95;10.30;;;6.00;99.90;;;;;;4976631;28;20075;-71
2024/03/06 07:44:48;;;;;;;15.15;9.02;;;6.00;99.90;;;;;;4991718;28;20477;-70
2024/03/06 07:47:15;;;;;;;18.38;11.18;;;6.10;99.90;;;;;;4991461;28;20101;-70
2024/03/06 07:49:44;;;;;;;12.93;9.20;;;6.10;99.90;;;;;;4991876;28;20481;-70
2024/03/06 07:52:11;;;;;;;14.10;9.50;;;6.10;99.90;;;;;;4976505;28;20567;-71
2024/03/06 07:54:39;;;;;;;13.55;9.07;;;6.10;99.90;;;;;;5007987;28;20480;-71
2024/03/06 07:57:06;;;;;;;13.38;9.73;;;6.20;99.90;;;;;;4974814;28;20090;-71
2024/03/06 07:59:33;;;;;;;14.32;10.95;;;6.20;99.90;;;;;;4991447;28;20408;-71
2024/03/06 08:02:01;;;;;;;16.48;9.55;;;6.20;99.90;;;;;;4991200;28;20038;-71
2024/03/06 08:04:28;;;;;;;15.30;9.90;;;6.20;99.90;;;;;;4976531;28;20654;-71
2024/03/06 08:06:55;;;;;;;13.27;8.10;;;6.30;99.90;;;;;;4975394;28;20057;-70
2024/03/06 08:09:23;;;;;;;16.23;10.38;;;6.30;99.90;;;;;;4991359;28;20097;-70
2024/03/06 08:11:50;;;;;;;16.95;10.23;;;6.40;99.90;;;;;;4976438;28;20134;-70
2024/03/06 08:14:17;;;;;;;16.17;9.98;;;6.40;99.90;;;;;;5007392;28;20496;-70
2024/03/06 08:16:44;;;;;;;14.18;9.38;;;6.40;99.90;;;;;;4991200;28;20047;-70
2024/03/06 08:19:11;;;;;;;16.13;9.80;;;6.40;99.90;;;;;;4991008;28;20042;-70
2024/03/06 08:21:38;;;;;;;16.02;10.15;;;6.40;99.90;;;;;;4991035;28;20054;-70
2024/03/06 08:24:05;;;;;;;16.58;9.18;;;6.50;99.90;;;;;;4974704;28;20063;-70
2024/03/06 08:26:32;;;;;;;15.82;9.73;;;6.50;99.90;;;;;;4974874;28;20097;-70
2024/03/06 08:28:59;;;;;;;15.50;10.38;;;6.60;99.90;;;;;;4991180;28;20043;-70
2024/03/06 08:31:26;;;;;;;11.73;8.57;;;6.60;99.90;;;;;;4974415;28;20058;-70
2024/03/06 08:33:54;;;;;;;9.52;7.07;;;6.60;99.90;;;;;;4974948;28;20038;-70
2024/03/06 08:36:21;;;;;;;10.60;8.60;;;6.60;99.90;;;;;;4974383;28;20125;-70
2024/03/06 08:38:48;;;;;;;15.90;11.82;;;6.60;99.90;;;;;;5006835;28;20381;-71
2024/03/06 08:41:15;;;;;;;13.85;9.65;;;6.60;99.90;;;;;;4975592;28;20038;-70
2024/03/06 08:43:44;;;;;;;13.13;9.25;;;6.60;99.90;;;;;;4990784;28;20046;-71
2024/03/06 08:46:12;;;;;;;16.92;10.05;;;6.80;99.90;;;;;;4975686;28;20061;-70
2024/03/06 08:48:39;;;;;;;19.58;12.20;;;6.70;99.90;;;;;;4974595;28;20039;-70
2024/03/06 08:51:10;;;;;;;13.35;10.82;;;6.70;99.90;;;;;;4990688;28;20054;-70
2024/03/06 08:53:38;;;;;;;16.33;13.35;;;6.70;99.90;;;;;;4990918;28;20161;-70
2024/03/06 08:56:06;;;;;;;26.30;16.52;;;6.70;99.90;;;;;;4990331;28;20043;-70
2024/03/06 08:58:33;;;;;;;54.40;47.85;;;6.80;99.90;;;;;;4974385;28;20403;-70
2024/03/06 09:01:00;;;;;;;19.00;15.45;;;6.90;99.90;;;;;;4990340;28;20101;-70
2024/03/06 09:03:27;;;;;;;27.38;24.98;;;7.10;99.90;;;;;;4989821;28;20504;-70
2024/03/06 09:05:54;;;;;;;63.75;59.10;;;7.20;99.90;;;;;;4975382;28;20101;-70
2024/03/06 09:08:21;;;;;;;124.55;115.40;;;7.30;99.90;;;;;;4990072;28;20154;-70
2024/03/06 09:10:48;;;;;;;26.42;23.65;;;7.40;99.90;;;;;;4974200;28;20043;-70
2024/03/06 09:13:15;;;;;;;27.27;24.58;;;7.50;99.90;;;;;;4975029;28;20082;-70
2024/03/06 09:15:42;;;;;;;22.88;17.38;;;7.60;99.90;;;;;;4989955;28;20051;-70
2024/03/06 09:18:09;;;;;;;11.68;10.15;;;7.60;99.90;;;;;;4974076;28;20050;-71
2024/03/06 09:20:36;;;;;;;13.65;9.15;;;7.70;99.90;;;;;;4975126;28;20042;-71
2024/03/06 09:23:03;;;;;;;21.98;14.02;;;7.70;99.90;;;;;;4990215;28;20066;-70
2024/03/06 09:25:30;;;;;;;14.60;10.20;;;7.70;99.90;;;;;;5006065;28;20043;-70
2024/03/06 09:27:57;;;;;;;19.95;13.70;;;7.70;99.90;;;;;;4990259;28;20097;-70
2024/03/06 09:30:24;;;;;;;14.43;10.73;;;7.70;99.90;;;;;;4989729;28;20051;-70
2024/03/06 09:32:51;;;;;;;17.67;14.48;;;7.80;99.90;;;;;;4975189;28;20113;-70
2024/03/06 09:35:18;;;;;;;13.73;9.75;;;7.70;99.90;;;;;;4974592;28;20113;-70
2024/03/06 09:37:46;;;;;;;16.83;12.32;;;7.60;99.90;;;;;;4989987;28;20480;-70
2024/03/06 09:40:22;;;;;;;22.38;15.00;;;7.60;99.90;;;;;;4974325;28;20055;-70
2024/03/06 09:42:52;;;;;;;16.85;11.30;;;7.50;99.90;;;;;;4989558;28;20055;-70
2024/03/06 09:45:20;;;;;;;17.02;12.80;;;7.50;99.90;;;;;;4974587;28;20055;-70
2024/03/06 09:47:50;;;;;;;19.92;11.85;;;7.40;99.90;;;;;;4989399;28;20050;-70
2024/03/06 09:50:23;;;;;;;19.65;11.98;;;7.40;99.90;;;;;;4974364;28;20128;-70
2024/03/06 09:52:53;;;;;;;14.93;11.18;;;7.40;99.90;;;;;;4974525;28;20050;-70
2024/03/06 09:55:21;;;;;;;15.18;10.02;;;7.40;99.90;;;;;;4974220;28;20078;-70
2024/03/06 09:57:50;;;;;;;17.95;11.55;;;7.50;99.90;;;;;;4974408;28;20046;-70
2024/03/06 10:00:18;;;;;;;14.38;8.98;;;7.60;99.90;;;;;;4974032;28;20090;-70
2024/03/06 10:02:54;;;;;;;10.35;8.25;;;7.70;99.90;;;;;;4974570;28;20077;-70
2024/03/06 10:05:22;;;;;;;11.32;8.55;;;7.80;99.90;;;;;;4974061;28;20047;-70
2024/03/06 10:07:53;;;;;;;18.17;11.70;;;7.70;99.90;;;;;;4989265;28;20050;-70
2024/03/06 10:10:22;;;;;;;16.58;11.45;;;7.70;99.90;;;;;;4988872;28;20051;-71
2024/03/06 10:12:50;;;;;;;18.27;10.80;;;7.80;99.90;;;;;;4988978;28;20493;-71
2024/03/06 10:15:17;;;;;;;8.48;4.45;;;7.90;99.90;;;;;;4988914;28;20047;-70
2024/03/06 10:17:46;;;;;;;20.83;12.93;;;8.00;99.90;;;;;;4973051;28;20043;-71
2024/03/06 10:20:22;;;;;;;17.77;11.48;;;8.20;99.90;;;;;;4988743;28;20047;-71
2024/03/06 10:22:50;;;;;;;19.05;10.40;;;8.50;99.90;;;;;;4988811;28;20474;-71
2024/03/06 10:25:21;;;;;;;17.10;12.15;;;8.60;99.90;;;;;;4988289;28;20039;-71
2024/03/06 10:28:09;;;;;;;19.67;12.32;;;8.70;99.90;;;;;;4988820;28;20047;-70
2024/03/06 10:30:41;;;;;;;21.35;14.57;;;8.80;99.90;;;;;;4973630;28;20069;-70
2024/03/06 10:33:10;;;;;;;22.50;13.25;;;8.90;99.90;;;;;;4972731;28;20050;-70
2024/03/06 10:35:39;;;;;;;17.15;14.75;;;8.90;99.70;;;;;;4988402;28;20381;-70
2024/03/06 10:38:07;;;;;;;18.90;12.68;;;8.80;98.70;;;;;;4988645;28;20070;-70
2024/03/06 10:40:37;;;;;;;22.20;12.43;;;8.80;99.60;;;;;;4988403;28;20093;-71
2024/03/06 10:43:06;;;;;;;469.33;192.93;;;8.90;99.80;;;;;;4973777;28;20074;-70
2024/03/06 10:45:48;;;;;;;58.63;36.30;;;9.00;99.20;;;;;;4988408;28;20097;-70
2024/03/06 10:48:19;;;;;;;23.95;14.13;;;9.30;99.20;;;;;;4988668;28;20054;-70
2024/03/06 10:50:48;;;;;;;21.85;15.02;;;9.50;98.40;;;;;;4988556;28;20078;-70
2024/03/06 10:53:17;;;;;;;14.25;12.38;;;9.60;98.20;;;;;;4988556;28;20391;-71
2024/03/06 10:55:46;;;;;;;18.73;12.30;;;9.60;97.30;;;;;;4973089;28;20093;-70
2024/03/06 10:58:14;;;;;;;19.58;11.98;;;9.60;97.80;;;;;;4988328;28;20059;-71
2024/03/06 11:00:44;;;;;;;17.23;12.23;;;9.80;98.20;;;;;;4973369;28;20047;-70
2024/03/06 11:03:14;;;;;;;20.55;13.48;;;10.00;98.00;;;;;;4973534;28;20042;-70
2024/03/06 11:05:42;;;;;;;14.20;9.70;;;10.20;97.90;;;;;;4973298;28;20065;-70
2024/03/06 11:08:11;;;;;;;21.55;13.95;;;10.30;96.70;;;;;;4988276;28;20059;-70
2024/03/06 11:10:41;;;;;;;19.65;13.13;;;10.50;97.10;;;;;;4972058;28;20051;-70
2024/03/06 11:13:19;;;;;;;19.17;11.32;;;10.70;96.90;;;;;;4973680;28;20058;-71
2024/03/06 11:15:51;;;;;;;17.40;10.95;;;10.60;95.50;;;;;;4987940;28;20053;-70
2024/03/06 11:18:28;;;;;;;18.67;12.25;;;10.50;95.90;;;;;;5003397;28;20046;-70
2024/03/06 11:21:05;;;;;;;17.60;11.00;;;10.50;96.20;;;;;;4987200;28;20101;-70
2024/03/06 11:23:32;;;;;;;;;;;10.40;95.90;;;;;;4972840;28;20087;-70
2024/03/06 11:26:06;;;;;;;21.85;15.23;;;10.50;96.30;;;;;;4972519;28;20316;-70
2024/03/06 11:28:35;;;;;;;24.05;11.50;;;10.50;96.00;;;;;;4972352;28;20063;-70
2024/03/06 11:31:18;;;;;;;22.88;13.90;;;10.50;96.40;;;;;;4972446;28;20051;-70
2024/03/06 11:33:47;;;;;;;13.50;10.50;;;10.70;96.40;;;;;;4986362;28;20054;-71
2024/03/06 11:36:25;;;;;;;20.25;15.35;;;11.00;95.10;;;;;;4972200;28;20050;-70
2024/03/06 11:38:55;;;;;;;17.63;12.73;;;11.10;95.50;;;;;;4970642;28;20054;-70
2024/03/06 11:41:24;;;;;;;25.30;15.05;;;11.30;95.00;;;;;;4973270;28;20050;-70
2024/03/06 11:43:54;;;;;;;21.15;9.60;;;11.70;95.00;;;;;;4987920;28;20078;-70
2024/03/06 11:46:23;;;;;;;22.60;14.10;;;12.00;93.80;;;;;;4988192;28;20117;-70
2024/03/06 11:48:54;;;;;;;18.27;13.65;;;12.50;94.20;;;;;;4987795;28;20093;-70
2024/03/06 11:51:26;;;;;;;18.33;12.10;;;13.20;93.30;;;;;;4973151;28;20058;-70
2024/03/06 11:53:53;;;;;;;24.27;12.95;;;13.50;92.00;;;;;;4987798;28;20054;-71
2024/03/06 11:56:21;;;;;;;24.15;13.40;;;13.60;91.50;;;;;;4987957;28;20511;-71
2024/03/06 11:58:49;;;;;;;20.55;13.93;;;13.60;91.30;;;;;;4971820;28;20137;-71
2024/03/06 12:01:18;;;;;;;17.17;11.18;;;13.30;91.10;;;;;;4973095;28;20519;-71
2024/03/06 12:03:47;;;;;;;21.88;13.82;;;13.20;91.50;;;;;;4971614;28;20097;-70
2024/03/06 12:06:16;;;;;;;20.92;13.20;;;13.00;91.80;;;;;;4973019;28;20575;-70
2024/03/06 12:08:44;;;;;;;18.17;13.73;;;12.90;91.90;;;;;;4989113;28;20051;-70
2024/03/06 12:11:11;;;;;;;13.80;8.27;;;12.70;91.40;;;;;;4976421;28;20049;-70
2024/03/06 12:13:38;;;;;;;21.83;13.98;;;12.50;91.40;;;;;;4975047;28;20042;-71
2024/03/06 12:16:07;;;;;;;15.45;10.23;;;12.20;91.40;;;;;;4991034;28;20054;-71
2024/03/06 12:18:34;;;;;;;37.95;33.65;;;11.90;91.80;;;;;;4974779;28;20392;-70
2024/03/06 12:21:02;;;;;;;12.65;8.75;;;11.60;92.40;;;;;;4976248;28;20043;-70
2024/03/06 12:23:30;;;;;;;17.27;12.70;;;11.50;92.50;;;;;;4976159;28;20043;-70
2024/03/06 12:26:11;;;;;;;16.80;11.27;;;11.50;92.70;;;;;;4990862;28;20093;-71
2024/03/06 12:28:39;;;;;;;15.57;10.35;;;11.60;92.80;;;;;;4990802;28;20146;-71
2024/03/06 12:31:07;;;;;;;15.90;12.10;;;11.60;92.50;;;;;;4990907;28;20047;-71
2024/03/06 12:33:35;;;;;;;15.02;10.25;;;11.70;92.70;;;;;;4990609;28;20047;-70
2024/03/06 12:36:10;;;;;;;21.52;14.75;;;11.70;92.20;;;;;;4976128;28;20165;-71
2024/03/06 12:38:38;;;;;;;21.33;11.48;;;11.40;92.30;;;;;;4975721;28;20039;-71
2024/03/06 12:41:05;;;;;;;19.73;13.55;;;11.30;93.00;;;;;;4974769;28;20461;-70
2024/03/06 12:43:34;;;;;;;14.45;10.23;;;11.30;93.10;;;;;;4975872;28;20106;-71
2024/03/06 12:46:02;;;;;;;21.13;13.07;;;11.30;93.00;;;;;;4975809;28;20485;-71
2024/03/06 12:48:31;;;;;;;18.08;13.43;;;11.40;93.30;;;;;;4974575;28;20041;-70
2024/03/06 12:51:04;;;;;;;22.17;15.00;;;11.60;93.20;;;;;;4990429;28;20047;-71
2024/03/06 12:53:34;;;;;;;20.50;14.07;;;11.60;93.00;;;;;;4974599;28;20038;-70